sensor_id;sensor_type;location;lat;lon;timestamp;P1;durP1;ratioP1;P2;durP2;ratioP2
2940;SDS011;1480;51.456;6.670;2024-03-22T00:01:44;25.13;;;12.50;;
2940;SDS011;1480;51.456;6.670;2024-03-22T00:04:11;22.30;;;13.07;;
2940;SDS011;1480;51.456;6.670;2024-03-22T00:06:38;23.60;;;12.63;;
2940;SDS011;1480;51.456;6.670;2024-03-22T00:09:05;21.60;;;10.70;;
2940;SDS011;1480;51.456;6.670;2024-03-22T00:11:31;23.83;;;11.37;;
2940;SDS011;1480;51.456;6.670;2024-03-22T00:13:58;23.13;;;12.10;;
2940;SDS011;1480;51.456;6.670;2024-03-22T00:16:24;25.97;;;11.47;;
2940;SDS011;1480;51.456;6.670;2024-03-22T00:18:50;25.67;;;11.10;;
2940;SDS011;1480;51.456;6.670;2024-03-22T00:21:16;37.50;;;11.83;;
2940;SDS011;1480;51.456;6.670;2024-03-22T00:23:44;22.10;;;12.37;;
2940;SDS011;1480;51.456;6.670;2024-03-22T00:26:10;27.50;;;13.30;;
2940;SDS011;1480;51.456;6.670;2024-03-22T00:28:37;20.57;;;12.50;;
2940;SDS011;1480;51.456;6.670;2024-03-22T00:31:03;27.27;;;13.07;;
2940;SDS011;1480;51.456;6.670;2024-03-22T00:33:30;25.73;;;12.00;;
2940;SDS011;1480;51.456;6.670;2024-03-22T00:35:56;22.60;;;11.50;;
2940;SDS011;1480;51.456;6.670;2024-03-22T00:38:23;28.80;;;13.23;;
2940;SDS011;1480;51.456;6.670;2024-03-22T00:40:50;23.40;;;12.73;;
2940;SDS011;1480;51.456;6.670;2024-03-22T00:43:16;18.47;;;12.07;;
2940;SDS011;1480;51.456;6.670;2024-03-22T00:45:42;25.40;;;12.10;;
2940;SDS011;1480;51.456;6.670;2024-03-22T00:48:09;28.00;;;12.97;;
2940;SDS011;1480;51.456;6.670;2024-03-22T00:50:34;23.70;;;13.70;;
2940;SDS011;1480;51.456;6.670;2024-03-22T00:53:01;27.50;;;14.67;;
2940;SDS011;1480;51.456;6.670;2024-03-22T00:55:28;25.67;;;13.00;;
2940;SDS011;1480;51.456;6.670;2024-03-22T00:57:56;23.40;;;11.63;;
2940;SDS011;1480;51.456;6.670;2024-03-22T01:00:22;21.07;;;12.50;;
2940;SDS011;1480;51.456;6.670;2024-03-22T01:02:49;23.33;;;12.87;;
2940;SDS011;1480;51.456;6.670;2024-03-22T01:05:15;21.10;;;11.50;;
2940;SDS011;1480;51.456;6.670;2024-03-22T01:07:42;20.03;;;11.67;;
2940;SDS011;1480;51.456;6.670;2024-03-22T01:10:08;23.07;;;14.30;;
2940;SDS011;1480;51.456;6.670;2024-03-22T01:12:34;25.60;;;11.83;;
2940;SDS011;1480;51.456;6.670;2024-03-22T01:15:02;28.57;;;13.93;;
2940;SDS011;1480;51.456;6.670;2024-03-22T01:17:29;23.57;;;11.50;;
2940;SDS011;1480;51.456;6.670;2024-03-22T01:19:54;30.33;;;13.17;;
2940;SDS011;1480;51.456;6.670;2024-03-22T01:22:21;22.67;;;11.27;;
2940;SDS011;1480;51.456;6.670;2024-03-22T01:24:48;22.33;;;12.50;;
2940;SDS011;1480;51.456;6.670;2024-03-22T01:27:15;21.70;;;12.20;;
2940;SDS011;1480;51.456;6.670;2024-03-22T01:29:40;21.60;;;12.90;;
2940;SDS011;1480;51.456;6.670;2024-03-22T01:32:08;28.57;;;13.47;;
2940;SDS011;1480;51.456;6.670;2024-03-22T01:34:34;26.20;;;12.97;;
2940;SDS011;1480;51.456;6.670;2024-03-22T01:37:01;22.60;;;12.40;;
2940;SDS011;1480;51.456;6.670;2024-03-22T01:39:28;22.77;;;12.90;;
2940;SDS011;1480;51.456;6.670;2024-03-22T01:41:54;24.40;;;13.40;;
2940;SDS011;1480;51.456;6.670;2024-03-22T01:44:26;24.30;;;13.90;;
2940;SDS011;1480;51.456;6.670;2024-03-22T01:46:53;22.17;;;12.60;;
2940;SDS011;1480;51.456;6.670;2024-03-22T01:49:20;28.17;;;13.67;;
2940;SDS011;1480;51.456;6.670;2024-03-22T01:51:47;22.00;;;13.43;;
2940;SDS011;1480;51.456;6.670;2024-03-22T01:54:13;24.03;;;12.70;;
2940;SDS011;1480;51.456;6.670;2024-03-22T01:56:42;23.93;;;13.47;;
2940;SDS011;1480;51.456;6.670;2024-03-22T01:59:08;23.03;;;12.53;;
2940;SDS011;1480;51.456;6.670;2024-03-22T02:01:35;16.60;;;11.07;;
2940;SDS011;1480;51.456;6.670;2024-03-22T02:04:01;28.57;;;12.13;;
2940;SDS011;1480;51.456;6.670;2024-03-22T02:06:29;21.17;;;12.50;;
2940;SDS011;1480;51.456;6.670;2024-03-22T02:08:55;25.50;;;14.33;;
2940;SDS011;1480;51.456;6.670;2024-03-22T02:11:22;21.00;;;11.43;;
2940;SDS011;1480;51.456;6.670;2024-03-22T02:13:48;28.60;;;13.93;;
2940;SDS011;1480;51.456;6.670;2024-03-22T02:16:15;26.27;;;13.07;;
2940;SDS011;1480;51.456;6.670;2024-03-22T02:18:41;26.03;;;14.50;;
2940;SDS011;1480;51.456;6.670;2024-03-22T02:21:09;25.43;;;13.90;;
2940;SDS011;1480;51.456;6.670;2024-03-22T02:23:37;22.80;;;12.00;;
2940;SDS011;1480;51.456;6.670;2024-03-22T02:26:05;26.93;;;12.83;;
2940;SDS011;1480;51.456;6.670;2024-03-22T02:28:31;25.60;;;11.87;;
2940;SDS011;1480;51.456;6.670;2024-03-22T02:30:58;26.73;;;14.07;;
2940;SDS011;1480;51.456;6.670;2024-03-22T02:33:23;26.63;;;14.07;;
2940;SDS011;1480;51.456;6.670;2024-03-22T02:35:50;25.10;;;13.47;;
2940;SDS011;1480;51.456;6.670;2024-03-22T02:38:16;23.47;;;13.57;;
2940;SDS011;1480;51.456;6.670;2024-03-22T02:40:44;26.30;;;14.00;;
2940;SDS011;1480;51.456;6.670;2024-03-22T02:43:10;29.23;;;12.37;;
2940;SDS011;1480;51.456;6.670;2024-03-22T02:45:38;29.87;;;12.73;;
2940;SDS011;1480;51.456;6.670;2024-03-22T02:48:04;28.70;;;15.20;;
2940;SDS011;1480;51.456;6.670;2024-03-22T02:50:32;24.90;;;13.67;;
2940;SDS011;1480;51.456;6.670;2024-03-22T02:52:58;24.93;;;14.43;;
2940;SDS011;1480;51.456;6.670;2024-03-22T02:55:25;25.57;;;13.43;;
2940;SDS011;1480;51.456;6.670;2024-03-22T02:57:52;26.37;;;13.70;;
2940;SDS011;1480;51.456;6.670;2024-03-22T03:00:18;29.80;;;13.87;;
2940;SDS011;1480;51.456;6.670;2024-03-22T03:02:45;25.87;;;12.57;;
2940;SDS011;1480;51.456;6.670;2024-03-22T03:05:11;25.07;;;13.23;;
2940;SDS011;1480;51.456;6.670;2024-03-22T03:07:37;27.70;;;14.13;;
2940;SDS011;1480;51.456;6.670;2024-03-22T03:10:04;23.23;;;13.43;;
2940;SDS011;1480;51.456;6.670;2024-03-22T03:12:30;23.43;;;13.33;;
2940;SDS011;1480;51.456;6.670;2024-03-22T03:14:58;27.90;;;13.90;;
2940;SDS011;1480;51.456;6.670;2024-03-22T03:17:24;30.60;;;14.10;;
2940;SDS011;1480;51.456;6.670;2024-03-22T03:19:51;30.90;;;16.50;;
2940;SDS011;1480;51.456;6.670;2024-03-22T03:22:16;28.80;;;14.60;;
2940;SDS011;1480;51.456;6.670;2024-03-22T03:24:43;30.37;;;13.40;;
2940;SDS011;1480;51.456;6.670;2024-03-22T03:27:09;24.03;;;13.00;;
2940;SDS011;1480;51.456;6.670;2024-03-22T03:29:36;26.33;;;13.27;;
2940;SDS011;1480;51.456;6.670;2024-03-22T03:32:03;30.63;;;16.40;;
2940;SDS011;1480;51.456;6.670;2024-03-22T03:34:30;26.43;;;14.27;;
2940;SDS011;1480;51.456;6.670;2024-03-22T03:36:59;32.53;;;15.37;;
2940;SDS011;1480;51.456;6.670;2024-03-22T03:39:26;25.13;;;15.20;;
2940;SDS011;1480;51.456;6.670;2024-03-22T03:41:52;25.47;;;14.00;;
2940;SDS011;1480;51.456;6.670;2024-03-22T03:44:19;31.77;;;14.37;;
2940;SDS011;1480;51.456;6.670;2024-03-22T03:46:44;23.33;;;13.57;;
2940;SDS011;1480;51.456;6.670;2024-03-22T03:49:12;29.30;;;13.57;;
2940;SDS011;1480;51.456;6.670;2024-03-22T03:51:38;29.20;;;15.17;;
2940;SDS011;1480;51.456;6.670;2024-03-22T03:54:08;23.13;;;12.80;;
2940;SDS011;1480;51.456;6.670;2024-03-22T03:56:33;27.13;;;13.70;;
2940;SDS011;1480;51.456;6.670;2024-03-22T03:59:00;28.80;;;15.57;;
2940;SDS011;1480;51.456;6.670;2024-03-22T04:01:26;27.73;;;14.07;;
2940;SDS011;1480;51.456;6.670;2024-03-22T04:03:52;25.43;;;12.40;;
2940;SDS011;1480;51.456;6.670;2024-03-22T04:06:19;32.73;;;13.87;;
2940;SDS011;1480;51.456;6.670;2024-03-22T04:08:46;28.67;;;13.33;;
2940;SDS011;1480;51.456;6.670;2024-03-22T04:11:12;27.73;;;12.23;;
2940;SDS011;1480;51.456;6.670;2024-03-22T04:13:38;27.30;;;13.63;;
2940;SDS011;1480;51.456;6.670;2024-03-22T04:16:04;28.33;;;14.37;;
2940;SDS011;1480;51.456;6.670;2024-03-22T04:18:31;27.33;;;13.20;;
2940;SDS011;1480;51.456;6.670;2024-03-22T04:20:57;26.60;;;13.13;;
2940;SDS011;1480;51.456;6.670;2024-03-22T04:23:26;24.83;;;13.53;;
2940;SDS011;1480;51.456;6.670;2024-03-22T04:25:53;30.00;;;14.87;;
2940;SDS011;1480;51.456;6.670;2024-03-22T04:28:20;31.20;;;14.77;;
2940;SDS011;1480;51.456;6.670;2024-03-22T04:30:53;31.10;;;16.57;;
2940;SDS011;1480;51.456;6.670;2024-03-22T04:33:21;27.13;;;14.33;;
2940;SDS011;1480;51.456;6.670;2024-03-22T04:35:47;23.63;;;13.77;;
2940;SDS011;1480;51.456;6.670;2024-03-22T04:38:14;24.40;;;14.03;;
2940;SDS011;1480;51.456;6.670;2024-03-22T04:40:42;23.20;;;12.67;;
2940;SDS011;1480;51.456;6.670;2024-03-22T04:43:09;27.00;;;14.30;;
2940;SDS011;1480;51.456;6.670;2024-03-22T04:45:35;29.43;;;14.90;;
2940;SDS011;1480;51.456;6.670;2024-03-22T04:48:01;33.10;;;13.87;;
2940;SDS011;1480;51.456;6.670;2024-03-22T04:50:29;24.90;;;11.40;;
2940;SDS011;1480;51.456;6.670;2024-03-22T04:52:55;23.63;;;11.70;;
2940;SDS011;1480;51.456;6.670;2024-03-22T04:55:22;31.70;;;16.07;;
2940;SDS011;1480;51.456;6.670;2024-03-22T04:57:49;26.77;;;15.30;;
2940;SDS011;1480;51.456;6.670;2024-03-22T05:00:16;24.23;;;13.23;;
2940;SDS011;1480;51.456;6.670;2024-03-22T05:02:42;23.27;;;14.00;;
2940;SDS011;1480;51.456;6.670;2024-03-22T05:05:08;21.53;;;13.80;;
2940;SDS011;1480;51.456;6.670;2024-03-22T05:07:35;28.00;;;14.10;;
2940;SDS011;1480;51.456;6.670;2024-03-22T05:10:02;23.10;;;13.37;;
2940;SDS011;1480;51.456;6.670;2024-03-22T05:12:28;26.23;;;14.80;;
2940;SDS011;1480;51.456;6.670;2024-03-22T05:14:56;29.33;;;15.03;;
2940;SDS011;1480;51.456;6.670;2024-03-22T05:17:22;24.60;;;13.07;;
2940;SDS011;1480;51.456;6.670;2024-03-22T05:19:48;19.97;;;12.33;;
2940;SDS011;1480;51.456;6.670;2024-03-22T05:22:15;24.63;;;13.80;;
2940;SDS011;1480;51.456;6.670;2024-03-22T05:24:41;26.30;;;14.93;;
2940;SDS011;1480;51.456;6.670;2024-03-22T05:27:07;33.73;;;15.80;;
2940;SDS011;1480;51.456;6.670;2024-03-22T05:29:34;28.03;;;13.57;;
2940;SDS011;1480;51.456;6.670;2024-03-22T05:32:01;23.10;;;13.40;;
2940;SDS011;1480;51.456;6.670;2024-03-22T05:34:31;26.30;;;15.57;;
2940;SDS011;1480;51.456;6.670;2024-03-22T05:36:57;21.37;;;12.17;;
2940;SDS011;1480;51.456;6.670;2024-03-22T05:39:24;22.87;;;14.20;;
2940;SDS011;1480;51.456;6.670;2024-03-22T05:41:49;20.60;;;13.60;;
2940;SDS011;1480;51.456;6.670;2024-03-22T05:44:16;23.33;;;12.73;;
2940;SDS011;1480;51.456;6.670;2024-03-22T05:46:42;17.60;;;12.10;;
2940;SDS011;1480;51.456;6.670;2024-03-22T05:49:10;23.83;;;12.37;;
2940;SDS011;1480;51.456;6.670;2024-03-22T05:51:36;19.53;;;12.40;;
2940;SDS011;1480;51.456;6.670;2024-03-22T05:54:03;24.20;;;12.30;;
2940;SDS011;1480;51.456;6.670;2024-03-22T05:56:29;22.60;;;11.90;;
2940;SDS011;1480;51.456;6.670;2024-03-22T05:58:56;26.57;;;12.90;;
2940;SDS011;1480;51.456;6.670;2024-03-22T06:01:21;23.80;;;12.80;;
2940;SDS011;1480;51.456;6.670;2024-03-22T06:03:48;30.03;;;15.37;;
2940;SDS011;1480;51.456;6.670;2024-03-22T06:06:15;24.47;;;12.50;;
2940;SDS011;1480;51.456;6.670;2024-03-22T06:08:42;18.63;;;12.10;;
2940;SDS011;1480;51.456;6.670;2024-03-22T06:11:11;19.40;;;11.77;;
2940;SDS011;1480;51.456;6.670;2024-03-22T06:13:37;18.23;;;11.33;;
2940;SDS011;1480;51.456;6.670;2024-03-22T06:16:03;20.60;;;11.20;;
2940;SDS011;1480;51.456;6.670;2024-03-22T06:18:31;23.43;;;13.07;;
2940;SDS011;1480;51.456;6.670;2024-03-22T06:20:59;20.17;;;11.40;;
2940;SDS011;1480;51.456;6.670;2024-03-22T06:23:27;19.17;;;12.93;;
2940;SDS011;1480;51.456;6.670;2024-03-22T06:25:53;18.83;;;10.97;;
2940;SDS011;1480;51.456;6.670;2024-03-22T06:28:20;19.47;;;12.57;;
2940;SDS011;1480;51.456;6.670;2024-03-22T06:30:46;20.87;;;10.57;;
2940;SDS011;1480;51.456;6.670;2024-03-22T06:33:13;21.47;;;11.87;;
2940;SDS011;1480;51.456;6.670;2024-03-22T06:35:39;19.43;;;11.77;;
2940;SDS011;1480;51.456;6.670;2024-03-22T06:38:05;18.10;;;12.40;;
2940;SDS011;1480;51.456;6.670;2024-03-22T06:40:32;18.67;;;11.30;;
2940;SDS011;1480;51.456;6.670;2024-03-22T06:42:59;23.00;;;10.93;;
2940;SDS011;1480;51.456;6.670;2024-03-22T06:45:25;23.80;;;11.33;;
2940;SDS011;1480;51.456;6.670;2024-03-22T06:47:51;19.57;;;11.83;;
2940;SDS011;1480;51.456;6.670;2024-03-22T06:50:17;18.20;;;11.20;;
2940;SDS011;1480;51.456;6.670;2024-03-22T06:52:49;25.63;;;10.97;;
2940;SDS011;1480;51.456;6.670;2024-03-22T06:55:15;20.20;;;10.80;;
2940;SDS011;1480;51.456;6.670;2024-03-22T06:57:43;18.97;;;11.50;;
2940;SDS011;1480;51.456;6.670;2024-03-22T07:00:10;20.77;;;11.63;;
2940;SDS011;1480;51.456;6.670;2024-03-22T07:02:38;18.33;;;10.80;;
2940;SDS011;1480;51.456;6.670;2024-03-22T07:05:05;16.73;;;10.10;;
2940;SDS011;1480;51.456;6.670;2024-03-22T07:07:32;19.77;;;12.63;;
2940;SDS011;1480;51.456;6.670;2024-03-22T07:09:58;17.97;;;10.20;;
2940;SDS011;1480;51.456;6.670;2024-03-22T07:12:24;18.50;;;10.47;;
2940;SDS011;1480;51.456;6.670;2024-03-22T07:14:51;15.83;;;10.50;;
2940;SDS011;1480;51.456;6.670;2024-03-22T07:17:18;19.17;;;10.10;;
2940;SDS011;1480;51.456;6.670;2024-03-22T07:19:49;16.80;;;11.00;;
2940;SDS011;1480;51.456;6.670;2024-03-22T07:22:16;20.43;;;10.50;;
2940;SDS011;1480;51.456;6.670;2024-03-22T07:24:41;17.30;;;10.70;;
2940;SDS011;1480;51.456;6.670;2024-03-22T07:27:08;17.20;;;10.50;;
2940;SDS011;1480;51.456;6.670;2024-03-22T07:29:34;16.93;;;9.00;;
2940;SDS011;1480;51.456;6.670;2024-03-22T07:32:02;15.43;;;9.70;;
2940;SDS011;1480;51.456;6.670;2024-03-22T07:34:28;17.13;;;10.37;;
2940;SDS011;1480;51.456;6.670;2024-03-22T07:36:57;17.87;;;9.80;;
2940;SDS011;1480;51.456;6.670;2024-03-22T07:39:23;18.63;;;10.20;;
2940;SDS011;1480;51.456;6.670;2024-03-22T07:41:50;18.97;;;10.53;;
2940;SDS011;1480;51.456;6.670;2024-03-22T07:44:16;13.27;;;8.97;;
2940;SDS011;1480;51.456;6.670;2024-03-22T07:46:44;13.70;;;8.77;;
2940;SDS011;1480;51.456;6.670;2024-03-22T07:49:12;17.87;;;9.37;;
2940;SDS011;1480;51.456;6.670;2024-03-22T07:51:38;16.40;;;10.03;;
2940;SDS011;1480;51.456;6.670;2024-03-22T07:54:04;14.07;;;9.50;;
2940;SDS011;1480;51.456;6.670;2024-03-22T07:56:31;14.40;;;8.90;;
2940;SDS011;1480;51.456;6.670;2024-03-22T07:58:57;15.10;;;9.40;;
2940;SDS011;1480;51.456;6.670;2024-03-22T08:01:23;16.80;;;9.47;;
2940;SDS011;1480;51.456;6.670;2024-03-22T08:03:49;18.50;;;9.10;;
2940;SDS011;1480;51.456;6.670;2024-03-22T08:06:17;16.63;;;9.13;;
2940;SDS011;1480;51.456;6.670;2024-03-22T08:08:43;16.23;;;9.03;;
2940;SDS011;1480;51.456;6.670;2024-03-22T08:11:10;11.30;;;7.67;;
2940;SDS011;1480;51.456;6.670;2024-03-22T08:13:36;12.63;;;8.20;;
2940;SDS011;1480;51.456;6.670;2024-03-22T08:16:03;13.30;;;8.37;;
2940;SDS011;1480;51.456;6.670;2024-03-22T08:18:29;11.17;;;7.60;;
2940;SDS011;1480;51.456;6.670;2024-03-22T08:20:56;14.70;;;7.67;;
2940;SDS011;1480;51.456;6.670;2024-03-22T08:23:23;15.63;;;8.50;;
2940;SDS011;1480;51.456;6.670;2024-03-22T08:25:50;12.17;;;8.27;;
2940;SDS011;1480;51.456;6.670;2024-03-22T08:28:15;18.93;;;7.43;;
2940;SDS011;1480;51.456;6.670;2024-03-22T08:30:42;12.50;;;7.63;;
2940;SDS011;1480;51.456;6.670;2024-03-22T08:33:08;14.77;;;8.60;;
2940;SDS011;1480;51.456;6.670;2024-03-22T08:35:35;12.93;;;7.33;;
2940;SDS011;1480;51.456;6.670;2024-03-22T08:38:00;13.80;;;8.27;;
2940;SDS011;1480;51.456;6.670;2024-03-22T08:40:29;14.60;;;7.57;;
2940;SDS011;1480;51.456;6.670;2024-03-22T08:42:55;13.33;;;7.80;;
2940;SDS011;1480;51.456;6.670;2024-03-22T08:45:21;22.50;;;8.43;;
2940;SDS011;1480;51.456;6.670;2024-03-22T08:47:47;11.07;;;6.53;;
2940;SDS011;1480;51.456;6.670;2024-03-22T08:50:14;14.23;;;8.20;;
2940;SDS011;1480;51.456;6.670;2024-03-22T08:52:39;11.47;;;7.90;;
2940;SDS011;1480;51.456;6.670;2024-03-22T08:55:06;13.33;;;7.27;;
2940;SDS011;1480;51.456;6.670;2024-03-22T08:57:34;12.27;;;6.70;;
2940;SDS011;1480;51.456;6.670;2024-03-22T09:00:00;10.73;;;6.90;;
2940;SDS011;1480;51.456;6.670;2024-03-22T09:02:26;10.60;;;7.40;;
2940;SDS011;1480;51.456;6.670;2024-03-22T09:04:53;12.33;;;7.73;;
2940;SDS011;1480;51.456;6.670;2024-03-22T09:07:19;11.60;;;6.53;;
2940;SDS011;1480;51.456;6.670;2024-03-22T09:09:46;10.20;;;6.27;;
2940;SDS011;1480;51.456;6.670;2024-03-22T09:12:11;10.47;;;7.20;;
2940;SDS011;1480;51.456;6.670;2024-03-22T09:14:39;10.83;;;6.80;;
2940;SDS011;1480;51.456;6.670;2024-03-22T09:17:05;13.80;;;7.60;;
2940;SDS011;1480;51.456;6.670;2024-03-22T09:19:32;14.00;;;7.63;;
2940;SDS011;1480;51.456;6.670;2024-03-22T09:21:58;12.50;;;7.30;;
2940;SDS011;1480;51.456;6.670;2024-03-22T09:24:24;13.47;;;8.10;;
2940;SDS011;1480;51.456;6.670;2024-03-22T09:26:50;13.67;;;7.47;;
2940;SDS011;1480;51.456;6.670;2024-03-22T09:29:18;12.43;;;8.20;;
2940;SDS011;1480;51.456;6.670;2024-03-22T09:31:45;10.77;;;6.70;;
2940;SDS011;1480;51.456;6.670;2024-03-22T09:34:12;11.50;;;6.20;;
2940;SDS011;1480;51.456;6.670;2024-03-22T09:36:38;55.60;;;19.13;;
2940;SDS011;1480;51.456;6.670;2024-03-22T09:39:04;17.60;;;8.57;;
2940;SDS011;1480;51.456;6.670;2024-03-22T09:41:31;10.83;;;6.87;;
2940;SDS011;1480;51.456;6.670;2024-03-22T09:43:58;12.27;;;7.17;;
2940;SDS011;1480;51.456;6.670;2024-03-22T09:46:26;10.27;;;6.47;;
2940;SDS011;1480;51.456;6.670;2024-03-22T09:48:55;10.70;;;7.63;;
2940;SDS011;1480;51.456;6.670;2024-03-22T09:51:20;10.10;;;6.93;;
2940;SDS011;1480;51.456;6.670;2024-03-22T09:53:48;10.13;;;7.70;;
2940;SDS011;1480;51.456;6.670;2024-03-22T09:56:14;15.40;;;7.70;;
2940;SDS011;1480;51.456;6.670;2024-03-22T09:58:41;10.70;;;6.53;;
2940;SDS011;1480;51.456;6.670;2024-03-22T10:01:07;10.87;;;7.27;;
2940;SDS011;1480;51.456;6.670;2024-03-22T10:03:34;18.17;;;7.60;;
2940;SDS011;1480;51.456;6.670;2024-03-22T10:06:06;11.13;;;6.40;;
2940;SDS011;1480;51.456;6.670;2024-03-22T10:08:33;11.43;;;6.50;;
2940;SDS011;1480;51.456;6.670;2024-03-22T10:11:01;12.03;;;6.67;;
2940;SDS011;1480;51.456;6.670;2024-03-22T10:13:28;10.10;;;6.60;;
2940;SDS011;1480;51.456;6.670;2024-03-22T10:15:54;12.47;;;6.80;;
2940;SDS011;1480;51.456;6.670;2024-03-22T10:18:21;10.20;;;6.53;;
2940;SDS011;1480;51.456;6.670;2024-03-22T10:20:47;11.27;;;6.90;;
2940;SDS011;1480;51.456;6.670;2024-03-22T10:23:15;11.20;;;6.67;;
2940;SDS011;1480;51.456;6.670;2024-03-22T10:25:41;11.93;;;6.00;;
2940;SDS011;1480;51.456;6.670;2024-03-22T10:28:07;9.90;;;6.37;;
2940;SDS011;1480;51.456;6.670;2024-03-22T10:30:33;11.53;;;6.00;;
2940;SDS011;1480;51.456;6.670;2024-03-22T10:33:02;12.87;;;7.60;;
2940;SDS011;1480;51.456;6.670;2024-03-22T10:35:29;9.40;;;6.60;;
2940;SDS011;1480;51.456;6.670;2024-03-22T10:37:56;10.17;;;5.67;;
2940;SDS011;1480;51.456;6.670;2024-03-22T10:40:23;10.30;;;6.40;;
2940;SDS011;1480;51.456;6.670;2024-03-22T10:42:50;11.17;;;6.40;;
2940;SDS011;1480;51.456;6.670;2024-03-22T10:45:15;12.77;;;7.33;;
2940;SDS011;1480;51.456;6.670;2024-03-22T10:47:43;9.40;;;6.37;;
2940;SDS011;1480;51.456;6.670;2024-03-22T10:50:10;9.40;;;6.50;;
2940;SDS011;1480;51.456;6.670;2024-03-22T10:52:39;11.17;;;7.20;;
2940;SDS011;1480;51.456;6.670;2024-03-22T10:55:08;7.67;;;5.50;;
2940;SDS011;1480;51.456;6.670;2024-03-22T10:57:38;10.40;;;6.93;;
2940;SDS011;1480;51.456;6.670;2024-03-22T11:00:07;11.77;;;6.57;;
2940;SDS011;1480;51.456;6.670;2024-03-22T11:02:36;9.70;;;5.57;;
2940;SDS011;1480;51.456;6.670;2024-03-22T11:05:02;10.43;;;6.27;;
2940;SDS011;1480;51.456;6.670;2024-03-22T11:07:29;8.30;;;5.33;;
2940;SDS011;1480;51.456;6.670;2024-03-22T11:09:56;9.13;;;6.03;;
2940;SDS011;1480;51.456;6.670;2024-03-22T11:12:24;11.73;;;5.93;;
2940;SDS011;1480;51.456;6.670;2024-03-22T11:14:52;8.20;;;6.43;;
2940;SDS011;1480;51.456;6.670;2024-03-22T11:17:19;11.90;;;6.43;;
2940;SDS011;1480;51.456;6.670;2024-03-22T11:19:46;9.37;;;6.53;;
2940;SDS011;1480;51.456;6.670;2024-03-22T11:22:13;10.70;;;7.03;;
2940;SDS011;1480;51.456;6.670;2024-03-22T11:24:39;14.13;;;6.20;;
2940;SDS011;1480;51.456;6.670;2024-03-22T11:27:06;9.47;;;5.90;;
2940;SDS011;1480;51.456;6.670;2024-03-22T11:29:32;9.53;;;6.27;;
2940;SDS011;1480;51.456;6.670;2024-03-22T11:32:00;7.57;;;5.33;;
2940;SDS011;1480;51.456;6.670;2024-03-22T11:34:26;14.00;;;8.13;;
2940;SDS011;1480;51.456;6.670;2024-03-22T11:36:53;13.57;;;7.40;;
2940;SDS011;1480;51.456;6.670;2024-03-22T11:39:19;13.00;;;7.30;;
2940;SDS011;1480;51.456;6.670;2024-03-22T11:41:46;14.07;;;7.90;;
2940;SDS011;1480;51.456;6.670;2024-03-22T11:44:14;9.43;;;6.97;;
2940;SDS011;1480;51.456;6.670;2024-03-22T11:46:41;12.23;;;7.00;;
2940;SDS011;1480;51.456;6.670;2024-03-22T11:49:08;12.90;;;6.73;;
2940;SDS011;1480;51.456;6.670;2024-03-22T11:51:35;11.90;;;7.07;;
2940;SDS011;1480;51.456;6.670;2024-03-22T11:54:00;10.80;;;6.60;;
2940;SDS011;1480;51.456;6.670;2024-03-22T11:56:30;10.77;;;7.10;;
2940;SDS011;1480;51.456;6.670;2024-03-22T11:58:57;10.37;;;6.80;;
2940;SDS011;1480;51.456;6.670;2024-03-22T12:01:25;7.67;;;6.07;;
2940;SDS011;1480;51.456;6.670;2024-03-22T12:03:51;10.13;;;6.57;;
2940;SDS011;1480;51.456;6.670;2024-03-22T12:06:20;12.50;;;6.70;;
2940;SDS011;1480;51.456;6.670;2024-03-22T12:08:45;13.43;;;8.30;;
2940;SDS011;1480;51.456;6.670;2024-03-22T12:11:12;11.97;;;7.40;;
2940;SDS011;1480;51.456;6.670;2024-03-22T12:13:38;8.57;;;6.10;;
2940;SDS011;1480;51.456;6.670;2024-03-22T12:16:05;13.00;;;6.27;;
2940;SDS011;1480;51.456;6.670;2024-03-22T12:18:31;9.87;;;6.67;;
2940;SDS011;1480;51.456;6.670;2024-03-22T12:20:58;11.80;;;6.37;;
2940;SDS011;1480;51.456;6.670;2024-03-22T12:23:26;11.60;;;6.80;;
2940;SDS011;1480;51.456;6.670;2024-03-22T12:25:52;11.43;;;7.17;;
2940;SDS011;1480;51.456;6.670;2024-03-22T12:28:20;13.67;;;7.03;;
2940;SDS011;1480;51.456;6.670;2024-03-22T12:30:46;9.93;;;6.83;;
2940;SDS011;1480;51.456;6.670;2024-03-22T12:33:13;12.17;;;7.77;;
2940;SDS011;1480;51.456;6.670;2024-03-22T12:35:39;8.10;;;5.77;;
2940;SDS011;1480;51.456;6.670;2024-03-22T12:38:06;10.53;;;6.60;;
2940;SDS011;1480;51.456;6.670;2024-03-22T12:40:33;10.83;;;6.30;;
2940;SDS011;1480;51.456;6.670;2024-03-22T12:43:00;11.47;;;7.57;;
2940;SDS011;1480;51.456;6.670;2024-03-22T12:45:26;10.67;;;5.80;;
2940;SDS011;1480;51.456;6.670;2024-03-22T12:47:52;9.53;;;6.47;;
2940;SDS011;1480;51.456;6.670;2024-03-22T12:50:18;8.70;;;6.00;;
2940;SDS011;1480;51.456;6.670;2024-03-22T12:52:45;8.83;;;5.93;;
2940;SDS011;1480;51.456;6.670;2024-03-22T12:55:11;9.30;;;6.73;;
2940;SDS011;1480;51.456;6.670;2024-03-22T12:57:39;9.03;;;6.33;;
2940;SDS011;1480;51.456;6.670;2024-03-22T13:00:06;10.33;;;6.20;;
2940;SDS011;1480;51.456;6.670;2024-03-22T13:02:41;12.43;;;6.30;;
2940;SDS011;1480;51.456;6.670;2024-03-22T13:05:07;6.53;;;5.50;;
2940;SDS011;1480;51.456;6.670;2024-03-22T13:07:35;9.93;;;6.50;;
2940;SDS011;1480;51.456;6.670;2024-03-22T13:10:03;9.80;;;6.43;;
2940;SDS011;1480;51.456;6.670;2024-03-22T13:12:30;9.03;;;6.00;;
2940;SDS011;1480;51.456;6.670;2024-03-22T13:14:57;8.37;;;5.80;;
2940;SDS011;1480;51.456;6.670;2024-03-22T13:17:24;13.80;;;7.40;;
2940;SDS011;1480;51.456;6.670;2024-03-22T13:19:50;12.00;;;6.83;;
2940;SDS011;1480;51.456;6.670;2024-03-22T13:22:16;7.07;;;5.63;;
2940;SDS011;1480;51.456;6.670;2024-03-22T13:24:43;11.53;;;6.70;;
2940;SDS011;1480;51.456;6.670;2024-03-22T13:27:10;8.80;;;6.40;;
2940;SDS011;1480;51.456;6.670;2024-03-22T13:29:37;10.40;;;7.13;;
2940;SDS011;1480;51.456;6.670;2024-03-22T13:32:06;13.43;;;7.00;;
2940;SDS011;1480;51.456;6.670;2024-03-22T13:34:32;10.93;;;6.60;;
2940;SDS011;1480;51.456;6.670;2024-03-22T13:36:59;12.63;;;7.40;;
2940;SDS011;1480;51.456;6.670;2024-03-22T13:39:25;11.40;;;6.60;;
2940;SDS011;1480;51.456;6.670;2024-03-22T13:41:54;12.37;;;7.40;;
2940;SDS011;1480;51.456;6.670;2024-03-22T13:44:20;8.60;;;6.63;;
2940;SDS011;1480;51.456;6.670;2024-03-22T13:46:47;8.67;;;6.97;;
2940;SDS011;1480;51.456;6.670;2024-03-22T13:49:16;11.60;;;8.27;;
2940;SDS011;1480;51.456;6.670;2024-03-22T13:51:43;10.20;;;6.97;;
2940;SDS011;1480;51.456;6.670;2024-03-22T13:54:09;8.63;;;6.20;;
2940;SDS011;1480;51.456;6.670;2024-03-22T13:56:36;12.50;;;7.97;;
2940;SDS011;1480;51.456;6.670;2024-03-22T13:59:03;13.63;;;7.93;;
2940;SDS011;1480;51.456;6.670;2024-03-22T14:01:30;10.10;;;6.57;;
2940;SDS011;1480;51.456;6.670;2024-03-22T14:03:56;11.30;;;8.13;;
2940;SDS011;1480;51.456;6.670;2024-03-22T14:06:24;12.07;;;7.43;;
2940;SDS011;1480;51.456;6.670;2024-03-22T14:08:49;13.80;;;7.63;;
2940;SDS011;1480;51.456;6.670;2024-03-22T14:11:19;12.83;;;8.27;;
2940;SDS011;1480;51.456;6.670;2024-03-22T14:13:45;14.10;;;8.47;;
2940;SDS011;1480;51.456;6.670;2024-03-22T14:16:11;13.23;;;8.57;;
2940;SDS011;1480;51.456;6.670;2024-03-22T14:18:37;13.20;;;9.03;;
2940;SDS011;1480;51.456;6.670;2024-03-22T14:21:04;17.80;;;10.20;;
2940;SDS011;1480;51.456;6.670;2024-03-22T14:23:31;10.30;;;7.40;;
2940;SDS011;1480;51.456;6.670;2024-03-22T14:25:57;13.03;;;8.50;;
2940;SDS011;1480;51.456;6.670;2024-03-22T14:28:23;15.10;;;8.77;;
2940;SDS011;1480;51.456;6.670;2024-03-22T14:30:50;13.93;;;9.17;;
2940;SDS011;1480;51.456;6.670;2024-03-22T14:33:15;11.80;;;8.57;;
2940;SDS011;1480;51.456;6.670;2024-03-22T14:35:42;13.60;;;8.73;;
2940;SDS011;1480;51.456;6.670;2024-03-22T14:38:08;19.43;;;9.33;;
2940;SDS011;1480;51.456;6.670;2024-03-22T14:40:36;14.50;;;9.53;;
2940;SDS011;1480;51.456;6.670;2024-03-22T14:43:03;14.93;;;9.50;;
2940;SDS011;1480;51.456;6.670;2024-03-22T14:45:30;14.30;;;9.67;;
2940;SDS011;1480;51.456;6.670;2024-03-22T14:47:56;16.10;;;10.00;;
2940;SDS011;1480;51.456;6.670;2024-03-22T14:50:23;11.50;;;7.77;;
2940;SDS011;1480;51.456;6.670;2024-03-22T14:52:49;12.23;;;7.83;;